createdAt,value
2024-04-30T00:02:30.566Z,99526.50
2024-04-30T00:06:32.058Z,99522.19
2024-04-30T00:10:33.709Z,99520.16
2024-04-30T00:14:35.230Z,99515.28
2024-04-30T00:18:36.734Z,99513.81
2024-04-30T00:22:38.211Z,99504.50
2024-04-30T00:26:40.075Z,99505.28
2024-04-30T00:30:41.608Z,99499.25
2024-04-30T00:34:43.082Z,99497.09
2024-04-30T00:38:44.736Z,99497.09
2024-04-30T00:42:46.235Z,99498.19
2024-04-30T00:46:47.970Z,99491.78
2024-04-30T00:50:49.705Z,99494.13
2024-04-30T00:54:51.287Z,99485.94
2024-04-30T00:58:52.768Z,99476.66
2024-04-30T01:02:54.231Z,99481.91
2024-04-30T01:06:55.743Z,99480.25
2024-04-30T01:10:57.444Z,99475.91
2024-04-30T01:14:58.946Z,99471.47
2024-04-30T01:19:00.463Z,99469.88
2024-04-30T01:23:01.924Z,99478.25
2024-04-30T01:27:04.240Z,99465.91
2024-04-30T01:31:05.808Z,99466.53
2024-04-30T01:35:07.643Z,99461.91
2024-04-30T01:39:09.172Z,99455.34
2024-04-30T01:43:10.817Z,99462.53
2024-04-30T01:47:12.330Z,99449.09
2024-04-30T01:51:13.848Z,99453.22
2024-04-30T01:55:15.383Z,99448.56
2024-04-30T01:59:16.885Z,99445.81
2024-04-30T02:03:18.447Z,99443.91
2024-04-30T02:07:20.061Z,99446.66
2024-04-30T02:11:21.679Z,99443.34
2024-04-30T02:15:23.251Z,99437.81
2024-04-30T02:19:24.760Z,99429.00
2024-04-30T02:23:26.312Z,99428.44
2024-04-30T02:27:27.841Z,99420.75
2024-04-30T02:31:29.402Z,99420.72
2024-04-30T02:35:30.940Z,99416.59
2024-04-30T02:39:32.431Z,99424.03
2024-04-30T02:43:34.084Z,99410.78
2024-04-30T02:47:35.755Z,99403.03
2024-04-30T02:51:37.316Z,99405.22
2024-04-30T02:55:39.606Z,99407.69
2024-04-30T02:59:41.188Z,99405.75
2024-04-30T03:03:44.022Z,99400.28
2024-04-30T03:07:45.555Z,99403.03
2024-04-30T03:11:47.040Z,99389.56
2024-04-30T03:15:48.597Z,99391.50
2024-04-30T03:19:52.839Z,99389.84
2024-04-30T03:23:54.320Z,99373.91
2024-04-30T03:27:57.697Z,99376.66
2024-04-30T03:32:00.535Z,99378.84
2024-04-30T03:36:02.005Z,99377.78
2024-04-30T03:40:03.927Z,99370.06
2024-04-30T03:44:05.707Z,99373.34
2024-04-30T03:48:07.412Z,99381.91
2024-04-30T03:52:09.048Z,99376.66
2024-04-30T03:56:10.624Z,99373.38
2024-04-30T04:00:12.465Z,99371.13
2024-04-30T04:04:14.018Z,99376.06
2024-04-30T04:08:15.552Z,99368.34
2024-04-30T04:12:17.079Z,99374.94
2024-04-30T04:16:18.671Z,99366.69
2024-04-30T04:20:20.159Z,99373.25
2024-04-30T04:24:21.716Z,99379.63
2024-04-30T04:28:23.242Z,99370.53
2024-04-30T04:32:24.890Z,99375.72
2024-04-30T04:36:26.417Z,99374.94
2024-04-30T04:40:27.959Z,99377.97
2024-04-30T04:44:29.454Z,99381.53
2024-04-30T04:48:31.025Z,99379.84
2024-04-30T04:52:32.614Z,99381.47
2024-04-30T04:56:34.202Z,99378.16
2024-04-30T05:00:35.773Z,99375.38
2024-04-30T05:04:37.312Z,99378.72
2024-04-30T05:08:38.838Z,99381.44
2024-04-30T05:12:40.384Z,99388.53
2024-04-30T05:16:41.904Z,99386.88
2024-04-30T05:20:43.454Z,99376.94
2024-04-30T05:24:45.017Z,99378.53
2024-04-30T05:28:46.568Z,99370.19
2024-04-30T05:32:48.312Z,99381.16
2024-04-30T05:36:49.831Z,99377.50
2024-04-30T05:40:51.362Z,99373.88
2024-04-30T05:44:54.929Z,99371.03
2024-04-30T05:48:56.429Z,99366.47
2024-04-30T05:52:57.896Z,99371.97
2024-04-30T05:57:02.444Z,99373.03
2024-04-30T06:01:04.271Z,99361.81
2024-04-30T06:05:05.989Z,99374.19
2024-04-30T06:09:07.541Z,99364.94
2024-04-30T06:13:09.270Z,99376.97
2024-04-30T06:17:10.767Z,99371.91
2024-04-30T06:21:19.864Z,99376.50
2024-04-30T06:25:25.245Z,99377.28
2024-04-30T06:29:26.821Z,99381.09
2024-04-30T06:33:28.405Z,99372.97
2024-04-30T06:37:29.938Z,99373.53
2024-04-30T06:41:31.408Z,99369.50
2024-04-30T06:45:32.915Z,99374.13
2024-04-30T06:49:34.888Z,99368.84
2024-04-30T06:53:36.396Z,99363.09
2024-04-30T06:57:38.083Z,99360.72
2024-04-30T07:01:39.778Z,99360.53
2024-04-30T07:05:41.347Z,99364.88
2024-04-30T07:09:42.839Z,99360.66
2024-04-30T07:13:44.355Z,99372.19
2024-04-30T07:17:45.946Z,99359.78
2024-04-30T07:21:47.445Z,99371.16
2024-04-30T07:25:49.021Z,99362.84
2024-04-30T07:29:50.620Z,99367.81
2024-04-30T07:33:52.131Z,99373.19
2024-04-30T07:37:53.648Z,99372.75
2024-04-30T07:41:55.117Z,99373.38
2024-04-30T07:45:56.803Z,99374.81
2024-04-30T07:49:58.341Z,99381.28
2024-04-30T07:53:59.821Z,99385.94
2024-04-30T07:58:01.504Z,99371.69
2024-04-30T08:02:03.464Z,99370.72
2024-04-30T08:06:11.070Z,99379.84
2024-04-30T08:10:20.039Z,99376.69
2024-04-30T08:14:21.605Z,99370.69
2024-04-30T08:18:23.133Z,99366.91
2024-04-30T08:22:24.682Z,99374.53
2024-04-30T08:26:26.179Z,99367.81
2024-04-30T08:30:27.669Z,99377.41
2024-04-30T08:34:29.541Z,99378.84
2024-04-30T08:38:31.062Z,99379.25
2024-04-30T08:42:33.247Z,99368.16
2024-04-30T08:46:38.776Z,99368.84
2024-04-30T08:50:42.791Z,99371.19
2024-04-30T08:54:44.369Z,99360.38
2024-04-30T08:58:45.891Z,99367.25
2024-04-30T09:02:53.103Z,99371.72
2024-04-30T09:06:56.082Z,99367.97
2024-04-30T09:10:57.671Z,99365.97
2024-04-30T09:14:59.263Z,99370.25
2024-04-30T09:19:00.761Z,99370.91
2024-04-30T09:23:02.286Z,99357.44
2024-04-30T09:27:04.127Z,99363.97
2024-04-30T09:31:06.054Z,99349.34
2024-04-30T09:35:07.742Z,99342.41
2024-04-30T09:39:10.191Z,99335.69
2024-04-30T09:43:12.108Z,99343.16
2024-04-30T09:47:15.483Z,99339.50
2024-04-30T09:51:20.152Z,99342.38
2024-04-30T09:55:23.895Z,99342.00
2024-04-30T09:59:25.462Z,99340.97
2024-04-30T10:03:29.848Z,99348.91
2024-04-30T10:07:32.578Z,99341.25
2024-04-30T10:11:45.403Z,99332.25
2024-04-30T10:15:46.870Z,99329.28
2024-04-30T10:19:48.788Z,99320.00
2024-04-30T10:23:50.304Z,99317.53
2024-04-30T10:28:03.616Z,99323.38
2024-04-30T10:32:05.941Z,99325.97
2024-04-30T10:36:12.435Z,99311.91
2024-04-30T10:40:14.725Z,99319.66
2024-04-30T10:44:16.194Z,99319.81
2024-04-30T10:48:17.737Z,99312.81
2024-04-30T10:52:22.488Z,99304.56
2024-04-30T10:56:25.222Z,99304.38
2024-04-30T11:00:26.767Z,99298.66
2024-04-30T11:04:29.404Z,99300.78
2024-04-30T11:08:30.942Z,99305.56
2024-04-30T11:12:32.433Z,99294.03
2024-04-30T11:16:33.943Z,99290.50
2024-04-30T11:20:35.437Z,99295.16
2024-04-30T11:24:37.475Z,99283.25
2024-04-30T11:28:39.092Z,99280.19
2024-04-30T11:32:40.778Z,99282.31
2024-04-30T11:36:42.454Z,99275.75
2024-04-30T11:44:45.537Z,99260.84
2024-04-30T11:48:47.172Z,99252.28
2024-04-30T11:52:49.347Z,99267.75
2024-04-30T11:56:52.026Z,99267.84
2024-04-30T12:00:53.593Z,99268.09
2024-04-30T12:04:58.006Z,99251.69
2024-04-30T12:08:59.562Z,99262.41
2024-04-30T12:13:01.115Z,99255.56
2024-04-30T12:17:02.766Z,99252.81
2024-04-30T12:21:04.731Z,99238.78
2024-04-30T12:25:06.475Z,99243.44
2024-04-30T12:29:08.142Z,99238.44
2024-04-30T12:33:09.718Z,99230.44
2024-04-30T12:37:11.480Z,99236.88
2024-04-30T12:41:12.954Z,99230.50
2024-04-30T12:45:14.493Z,99220.72
2024-04-30T12:49:16.096Z,99220.03
2024-04-30T12:53:17.720Z,99214.16
2024-04-30T12:57:19.191Z,99216.69
2024-04-30T13:01:24.358Z,99203.38
2024-04-30T13:05:27.660Z,99202.16
2024-04-30T13:09:29.195Z,99195.66
2024-04-30T13:13:30.839Z,99195.38
2024-04-30T13:17:32.440Z,99189.16
2024-04-30T13:21:34.083Z,99178.66
2024-04-30T13:25:35.700Z,99181.19
2024-04-30T13:29:37.293Z,99167.38
2024-04-30T13:33:38.806Z,99156.06
2024-04-30T13:37:40.452Z,99157.91
2024-04-30T13:41:41.943Z,99140.94
2024-04-30T13:45:43.643Z,99149.94
2024-04-30T13:49:45.136Z,99143.91
2024-04-30T13:53:46.647Z,99145.13
2024-04-30T13:57:48.086Z,99142.31
2024-04-30T14:01:49.753Z,99151.78
2024-04-30T14:05:51.346Z,99138.78
2024-04-30T14:09:52.910Z,99142.06
2024-04-30T14:13:54.380Z,99130.44
2024-04-30T14:17:55.996Z,99140.81
2024-04-30T14:21:57.528Z,99136.38
2024-04-30T14:25:59.027Z,99133.84
2024-04-30T14:30:00.609Z,99113.34
2024-04-30T14:34:02.338Z,99095.19
2024-04-30T14:38:03.980Z,99100.81
2024-04-30T14:42:05.577Z,99098.53
2024-04-30T14:46:07.922Z,99102.50
2024-04-30T14:50:09.435Z,99088.84
2024-04-30T14:54:11.059Z,99077.72
2024-04-30T14:58:12.557Z,99078.00
2024-04-30T15:02:14.153Z,99075.69
2024-04-30T15:06:22.249Z,99071.72
2024-04-30T15:10:23.799Z,99067.25
2024-04-30T15:14:28.587Z,99071.66
2024-04-30T15:18:30.122Z,99071.31
2024-04-30T15:22:31.773Z,99075.00
2024-04-30T15:26:38.637Z,99065.66
2024-04-30T15:30:40.198Z,99061.47
2024-04-30T15:34:41.823Z,99055.91
2024-04-30T15:38:43.365Z,99052.47
2024-04-30T15:42:45.015Z,99052.06
2024-04-30T15:46:46.679Z,99038.81
2024-04-30T15:50:48.248Z,99041.13
2024-04-30T15:54:49.874Z,99028.81
2024-04-30T15:58:51.418Z,99024.50
2024-04-30T16:02:52.943Z,99033.13
2024-04-30T16:06:54.604Z,99022.25
2024-04-30T16:10:56.253Z,99023.78
2024-04-30T16:14:57.788Z,99031.38
2024-04-30T16:18:59.272Z,99023.91
2024-04-30T16:23:00.834Z,99037.50
2024-04-30T16:27:02.377Z,99026.09
2024-04-30T16:31:04.209Z,99030.00
2024-04-30T16:35:05.890Z,99027.63
2024-04-30T16:39:07.417Z,99011.75
2024-04-30T16:43:08.948Z,99013.28
2024-04-30T16:47:10.524Z,99026.19
2024-04-30T16:51:13.966Z,99021.09
2024-04-30T16:55:15.492Z,99029.28
2024-04-30T16:59:17.030Z,99035.53
2024-04-30T17:03:18.702Z,99028.56
2024-04-30T17:07:20.327Z,99018.69
2024-04-30T17:11:21.837Z,99031.09
2024-04-30T17:15:24.329Z,99020.59
2024-04-30T17:19:25.837Z,99013.56
2024-04-30T17:23:27.364Z,99011.69
2024-04-30T17:27:30.838Z,99021.47
2024-04-30T17:31:34.002Z,99027.06
2024-04-30T17:35:35.798Z,99028.06
2024-04-30T17:39:38.172Z,99037.25
2024-04-30T17:43:39.691Z,99030.03
2024-04-30T17:47:41.199Z,99034.34
2024-04-30T17:51:43.737Z,99032.97
2024-04-30T17:55:45.253Z,99038.56
2024-04-30T17:59:46.812Z,99046.53
2024-04-30T18:03:52.460Z,99046.91
2024-04-30T18:07:54.000Z,99045.84
2024-04-30T18:11:56.936Z,99048.72
2024-04-30T18:15:59.942Z,99044.84
2024-04-30T18:20:01.466Z,99051.22
2024-04-30T18:24:03.663Z,99055.50
2024-04-30T18:28:05.202Z,99056.63
2024-04-30T18:32:07.118Z,99050.91
2024-04-30T18:36:08.768Z,99054.28
2024-04-30T18:40:10.390Z,99056.91
2024-04-30T18:44:12.787Z,99051.00
2024-04-30T18:48:14.893Z,99058.66
2024-04-30T18:52:17.030Z,99069.56
2024-04-30T18:56:18.969Z,99068.69
2024-04-30T19:00:20.793Z,99067.38
2024-04-30T19:04:22.359Z,99072.16
2024-04-30T19:08:23.941Z,99065.47
2024-04-30T19:12:25.530Z,99072.22
2024-04-30T19:16:27.004Z,99076.75
2024-04-30T19:20:28.519Z,99075.94
2024-04-30T19:24:30.097Z,99077.41
2024-04-30T19:28:31.689Z,99058.06
2024-04-30T19:32:34.375Z,99063.94
2024-04-30T19:36:35.901Z,99068.84
2024-04-30T19:40:37.900Z,99073.25
2024-04-30T19:44:39.608Z,99070.47
2024-04-30T19:48:41.260Z,99071.63
2024-04-30T19:52:42.826Z,99067.25
2024-04-30T19:56:44.359Z,99076.91
2024-04-30T20:00:45.914Z,99072.47
2024-04-30T20:04:47.557Z,99065.28
2024-04-30T20:08:49.081Z,99061.66
2024-04-30T20:12:50.580Z,99067.66
2024-04-30T20:16:52.377Z,99061.09
2024-04-30T20:20:53.959Z,99053.94
2024-04-30T20:24:55.475Z,99066.13
2024-04-30T20:28:57.311Z,99057.16
2024-04-30T20:32:58.995Z,99058.56
2024-04-30T20:37:00.777Z,99048.59
2024-04-30T20:41:02.276Z,99055.16
2024-04-30T20:45:04.017Z,99047.81
2024-04-30T20:49:05.883Z,99054.16
2024-04-30T20:53:07.397Z,99050.38
2024-04-30T20:57:08.916Z,99049.63
2024-04-30T21:01:15.508Z,99039.44
2024-04-30T21:05:17.042Z,99046.09
2024-04-30T21:09:18.670Z,99049.63
2024-04-30T21:13:23.462Z,99035.25
2024-04-30T21:17:24.985Z,99042.88
2024-04-30T21:21:26.453Z,99034.69
2024-04-30T21:25:27.932Z,99038.13
2024-04-30T21:29:29.401Z,99032.97
2024-04-30T21:33:31.065Z,99025.16
2024-04-30T21:37:33.142Z,99020.31
2024-04-30T21:41:34.783Z,99012.75
2024-04-30T21:45:36.283Z,99010.50
2024-04-30T21:49:37.824Z,99013.16
2024-04-30T21:53:39.352Z,99007.41
2024-04-30T21:57:40.883Z,99004.25
2024-04-30T22:01:48.521Z,98997.16
2024-04-30T22:05:49.998Z,98996.16
2024-04-30T22:09:51.546Z,98996.00
2024-04-30T22:13:53.146Z,98982.88
2024-04-30T22:17:54.902Z,98973.59
2024-04-30T22:21:56.651Z,98984.84
2024-04-30T22:25:58.175Z,98979.28
2024-04-30T22:30:08.676Z,98978.75
2024-04-30T22:34:19.039Z,98971.38
2024-04-30T22:38:20.904Z,98959.47
2024-04-30T22:42:22.404Z,98954.34
2024-04-30T22:46:23.876Z,98957.34
2024-04-30T22:50:25.405Z,98948.09
2024-04-30T22:54:26.903Z,98944.50
2024-04-30T22:58:29.388Z,98936.91
2024-04-30T23:02:30.848Z,98937.09
2024-04-30T23:06:32.337Z,98930.94
2024-04-30T23:10:34.032Z,98932.78
2024-04-30T23:14:35.528Z,98921.28
2024-04-30T23:18:37.102Z,98907.94
2024-04-30T23:22:38.644Z,98909.28
2024-04-30T23:26:40.201Z,98912.25
2024-04-30T23:30:41.811Z,98903.03
2024-04-30T23:34:43.343Z,98908.97
2024-04-30T23:38:44.785Z,98885.06
2024-04-30T23:42:46.288Z,98883.84
2024-04-30T23:46:47.878Z,98889.06
2024-04-30T23:50:49.376Z,98876.34
2024-04-30T23:54:50.906Z,98870.59
2024-04-30T23:58:52.390Z,98857.09
